createdAt,value
2018-12-26T00:00:37.519Z,22.00
2018-12-26T00:03:47.806Z,22.53
2018-12-26T00:06:50.390Z,21.40
2018-12-26T00:09:53.517Z,21.93
2018-12-26T00:12:56.440Z,20.07
2018-12-26T00:16:06.832Z,23.10
2018-12-26T00:19:09.627Z,20.53
2018-12-26T00:22:12.441Z,20.30
2018-12-26T00:25:22.776Z,22.57
2018-12-26T00:28:26.001Z,20.90
2018-12-26T00:31:36.330Z,21.83
2018-12-26T00:34:38.979Z,22.63
2018-12-26T00:37:49.263Z,23.00
2018-12-26T00:40:51.774Z,22.47
2018-12-26T00:44:02.059Z,21.27
2018-12-26T00:47:05.486Z,23.47
2018-12-26T00:50:15.790Z,19.97
2018-12-26T00:53:19.150Z,23.03
2018-12-26T00:56:29.449Z,22.37
2018-12-26T00:59:32.045Z,22.27
2018-12-26T01:02:42.336Z,22.60
2018-12-26T01:05:45.100Z,24.03
2018-12-26T01:08:48.215Z,25.33
2018-12-26T01:11:51.015Z,22.50
2018-12-26T01:14:53.693Z,23.50
2018-12-26T01:18:04.019Z,24.23
2018-12-26T01:21:07.371Z,22.87
2018-12-26T01:24:17.694Z,22.33
2018-12-26T01:27:20.357Z,25.53
2018-12-26T01:30:30.691Z,25.57
2018-12-26T01:33:34.163Z,23.87
2018-12-26T01:36:44.438Z,24.03
2018-12-26T01:39:47.777Z,23.13
2018-12-26T01:42:58.105Z,24.83
2018-12-26T01:46:00.692Z,24.10
2018-12-26T01:49:10.989Z,22.53
2018-12-26T01:52:13.834Z,24.53
2018-12-26T01:55:24.130Z,22.97
2018-12-26T01:58:26.656Z,22.27
2018-12-26T02:01:36.965Z,25.90
2018-12-26T02:04:39.665Z,25.27
2018-12-26T02:07:49.943Z,26.27
2018-12-26T02:10:53.081Z,28.20
2018-12-26T02:13:56.316Z,25.83
2018-12-26T02:16:59.535Z,27.10
2018-12-26T02:20:09.786Z,27.17
2018-12-26T02:23:13.010Z,26.60
2018-12-26T02:26:23.285Z,25.90
2018-12-26T02:29:25.929Z,26.43
2018-12-26T02:32:36.255Z,26.47
2018-12-26T02:35:39.069Z,27.93
2018-12-26T02:38:49.421Z,24.93
2018-12-26T02:41:51.995Z,27.50
2018-12-26T02:45:02.279Z,25.93
2018-12-26T02:48:04.830Z,26.37
2018-12-26T02:51:15.106Z,27.30
2018-12-26T02:54:18.011Z,25.27
2018-12-26T02:57:20.736Z,27.80
2018-12-26T03:00:23.726Z,26.33
2018-12-26T03:03:34.016Z,25.27
2018-12-26T03:06:36.669Z,26.03
2018-12-26T03:09:46.948Z,26.13
2018-12-26T03:12:49.832Z,24.80
2018-12-26T03:16:00.105Z,26.07
2018-12-26T03:19:03.196Z,24.37
2018-12-26T03:22:13.438Z,26.40
2018-12-26T03:25:16.708Z,23.80
2018-12-26T03:28:27.068Z,26.07
2018-12-26T03:31:29.988Z,26.57
2018-12-26T03:34:40.268Z,26.17
2018-12-26T03:37:42.915Z,23.73
2018-12-26T03:40:53.221Z,25.40
2018-12-26T03:43:56.075Z,23.30
2018-12-26T03:47:06.611Z,25.33
2018-12-26T03:50:09.418Z,24.83
2018-12-26T03:53:19.771Z,24.83
2018-12-26T03:56:22.774Z,25.10
2018-12-26T03:59:33.075Z,23.20
2018-12-26T04:02:36.269Z,24.97
2018-12-26T04:05:46.577Z,26.33
2018-12-26T04:08:49.348Z,23.47
2018-12-26T04:11:59.643Z,29.10
2018-12-26T04:15:02.742Z,25.03
2018-12-26T04:18:13.123Z,23.63
2018-12-26T04:21:16.193Z,24.43
2018-12-26T04:24:26.542Z,23.90
2018-12-26T04:27:29.648Z,24.93
2018-12-26T04:30:40.009Z,24.57
2018-12-26T04:33:43.276Z,26.07
2018-12-26T04:36:45.800Z,24.63
2018-12-26T04:39:56.075Z,22.83
2018-12-26T04:42:58.767Z,24.13
2018-12-26T04:46:09.049Z,22.90
2018-12-26T04:49:11.821Z,26.57
2018-12-26T04:52:22.106Z,25.37
2018-12-26T04:55:25.317Z,22.57
2018-12-26T04:58:35.615Z,24.67
2018-12-26T05:01:38.674Z,24.83
2018-12-26T05:04:49.061Z,26.20
2018-12-26T05:07:51.763Z,23.60
2018-12-26T05:11:02.012Z,24.03
2018-12-26T05:14:04.901Z,24.97
2018-12-26T05:17:15.140Z,24.70
2018-12-26T05:20:18.221Z,24.20
2018-12-26T05:23:28.517Z,23.23
2018-12-26T05:26:32.026Z,23.43
2018-12-26T05:29:35.185Z,24.77
2018-12-26T05:32:37.637Z,24.67
2018-12-26T05:35:40.802Z,23.97
2018-12-26T05:38:51.039Z,26.53
2018-12-26T05:41:53.815Z,26.63
2018-12-26T05:45:04.078Z,25.33
2018-12-26T05:48:07.157Z,24.60
2018-12-26T05:51:17.467Z,25.40
2018-12-26T05:54:20.490Z,23.07
2018-12-26T05:57:30.773Z,27.37
2018-12-26T06:00:33.352Z,23.97
2018-12-26T06:03:43.631Z,26.07
2018-12-26T06:06:46.237Z,27.67
2018-12-26T06:09:56.533Z,26.20
2018-12-26T06:12:59.672Z,27.37
2018-12-26T06:16:09.998Z,24.80
2018-12-26T06:19:12.859Z,25.50
2018-12-26T06:22:16.125Z,26.83
2018-12-26T06:25:19.320Z,22.83
2018-12-26T06:28:29.640Z,24.80
2018-12-26T06:31:32.388Z,26.13
2018-12-26T06:34:42.647Z,22.83
2018-12-26T06:37:45.355Z,26.83
2018-12-26T06:40:55.626Z,25.17
2018-12-26T06:43:58.363Z,22.97
2018-12-26T06:47:08.626Z,23.60
2018-12-26T06:50:11.096Z,22.73
2018-12-26T06:53:13.896Z,22.47
2018-12-26T06:56:24.161Z,23.30
2018-12-26T06:59:27.208Z,23.73
2018-12-26T07:02:37.452Z,25.03
2018-12-26T07:05:39.993Z,24.00
2018-12-26T07:08:50.300Z,22.47
2018-12-26T07:11:53.114Z,26.50
2018-12-26T07:15:03.419Z,24.20
2018-12-26T07:18:06.329Z,23.37
2018-12-26T07:21:09.230Z,25.80
2018-12-26T07:24:12.541Z,23.83
2018-12-26T07:27:22.841Z,23.97
2018-12-26T07:30:25.611Z,25.20
2018-12-26T07:33:35.883Z,25.13
2018-12-26T07:36:39.170Z,24.73
2018-12-26T07:39:49.446Z,24.60
2018-12-26T07:42:52.074Z,25.27
2018-12-26T07:46:02.374Z,21.83
2018-12-26T07:49:05.511Z,22.30
2018-12-26T07:52:15.795Z,22.17
2018-12-26T07:55:18.426Z,23.37
2018-12-26T07:58:28.787Z,23.63
2018-12-26T08:01:31.411Z,22.17
2018-12-26T08:04:41.685Z,23.53
2018-12-26T08:07:45.124Z,23.93
2018-12-26T08:10:55.406Z,21.20
2018-12-26T08:13:58.669Z,21.07
2018-12-26T08:17:08.370Z,20.63
2018-12-26T08:20:11.208Z,23.90
2018-12-26T08:23:21.477Z,22.63
2018-12-26T08:26:24.901Z,24.83
2018-12-26T08:29:35.152Z,21.33
2018-12-26T08:32:37.652Z,22.00
2018-12-26T08:35:47.935Z,22.63
2018-12-26T08:38:50.675Z,21.40
2018-12-26T08:42:00.968Z,22.07
2018-12-26T08:45:03.810Z,24.37
2018-12-26T08:48:14.081Z,23.60
2018-12-26T08:51:16.971Z,23.07
2018-12-26T08:54:27.295Z,21.10
2018-12-26T08:57:29.845Z,21.03
2018-12-26T09:00:32.995Z,21.57
2018-12-26T09:03:35.848Z,23.23
2018-12-26T09:06:46.129Z,23.00
2018-12-26T09:09:49.438Z,22.20
2018-12-26T09:12:59.728Z,21.80
2018-12-26T09:16:02.994Z,21.30
2018-12-26T09:19:13.284Z,21.17
2018-12-26T09:22:15.802Z,21.03
2018-12-26T09:25:26.363Z,19.53
2018-12-26T09:28:29.042Z,20.03
2018-12-26T09:31:39.296Z,18.60
2018-12-26T09:34:42.240Z,20.73
2018-12-26T09:37:52.543Z,21.87
2018-12-26T09:40:55.611Z,19.53
2018-12-26T09:44:05.875Z,20.23
2018-12-26T09:47:08.861Z,20.23
2018-12-26T09:50:19.150Z,19.40
2018-12-26T09:53:21.726Z,19.80
2018-12-26T09:56:31.972Z,20.93
2018-12-26T09:59:34.872Z,20.77
2018-12-26T10:02:37.903Z,20.50
2018-12-26T10:05:40.889Z,19.67
2018-12-26T10:08:51.190Z,20.60
2018-12-26T10:11:53.845Z,18.80
2018-12-26T10:15:04.264Z,18.03
2018-12-26T10:18:07.189Z,18.07
2018-12-26T10:21:09.967Z,21.07
2018-12-26T10:24:12.942Z,16.87
2018-12-26T10:27:15.801Z,19.30
2018-12-26T10:30:26.064Z,15.73
2018-12-26T10:33:29.352Z,16.83
2018-12-26T10:36:39.641Z,16.27
2018-12-26T10:39:42.598Z,17.87
2018-12-26T10:42:52.827Z,15.93
2018-12-26T10:45:56.273Z,17.77
2018-12-26T10:52:25.033Z,17.90
2018-12-26T10:55:27.848Z,18.33
2018-12-26T10:58:30.524Z,15.10
2018-12-26T11:01:41.201Z,18.10
2018-12-26T11:04:45.056Z,16.27
2018-12-26T11:07:55.282Z,18.30
2018-12-26T11:10:58.448Z,17.00
2018-12-26T11:14:08.744Z,15.73
2018-12-26T11:17:11.487Z,16.53
2018-12-26T11:20:15.311Z,15.47
2018-12-26T11:23:25.604Z,17.20
2018-12-26T11:26:29.040Z,16.43
2018-12-26T11:33:02.583Z,14.43
2018-12-26T11:36:12.849Z,16.00
2018-12-26T11:39:15.520Z,15.23
2018-12-26T11:42:25.834Z,14.50
2018-12-26T11:45:28.596Z,18.43
2018-12-26T11:48:31.535Z,16.80
2018-12-26T11:51:41.849Z,16.00
2018-12-26T11:54:45.135Z,16.43
2018-12-26T11:57:55.482Z,16.40
2018-12-26T12:00:58.737Z,15.30
2018-12-26T12:04:09.083Z,15.20
2018-12-26T12:07:12.450Z,15.17
2018-12-26T12:10:15.625Z,14.13
2018-12-26T12:13:25.898Z,15.40
2018-12-26T12:16:29.341Z,14.70
2018-12-26T12:19:32.151Z,14.80
2018-12-26T12:22:35.536Z,14.77
2018-12-26T12:25:40.735Z,14.13
2018-12-26T12:28:50.987Z,15.00
2018-12-26T12:31:53.484Z,14.00
2018-12-26T12:35:03.766Z,13.27
2018-12-26T12:38:07.050Z,13.93
2018-12-26T12:41:17.369Z,13.77
2018-12-26T12:44:21.657Z,13.07
2018-12-26T12:47:24.489Z,14.70
2018-12-26T12:50:27.362Z,14.30
2018-12-26T12:53:37.641Z,15.67
2018-12-26T12:56:40.372Z,15.33
2018-12-26T12:59:50.633Z,13.90
2018-12-26T13:03:00.382Z,13.53
2018-12-26T13:06:05.316Z,14.53
2018-12-26T13:09:10.517Z,11.53
2018-12-26T13:12:20.823Z,13.33
2018-12-26T13:15:23.446Z,14.07
2018-12-26T13:18:33.756Z,13.77
2018-12-26T13:21:36.324Z,14.80
2018-12-26T13:24:46.568Z,13.07
2018-12-26T13:27:49.978Z,13.63
2018-12-26T13:31:05.063Z,13.97
2018-12-26T13:34:04.543Z,14.33
2018-12-26T13:37:14.921Z,14.47
2018-12-26T13:40:21.115Z,13.60
2018-12-26T13:43:31.501Z,13.57
2018-12-26T13:46:34.942Z,14.93
2018-12-26T13:49:37.930Z,12.53
2018-12-26T13:52:48.195Z,11.40
2018-12-26T13:55:51.611Z,12.50
2018-12-26T14:02:28.403Z,12.73
2018-12-26T14:05:35.063Z,14.40
2018-12-26T14:08:38.559Z,11.80
2018-12-26T14:11:48.902Z,12.43
2018-12-26T14:14:52.461Z,12.83
2018-12-26T14:18:03.131Z,11.97
2018-12-26T14:21:06.339Z,11.13
2018-12-26T14:24:09.418Z,11.00
2018-12-26T14:27:12.356Z,12.03
2018-12-26T14:30:23.067Z,11.80
2018-12-26T14:33:25.843Z,11.73
2018-12-26T14:36:36.328Z,13.13
2018-12-26T14:39:39.058Z,11.93
2018-12-26T14:42:42.193Z,10.27
2018-12-26T14:45:52.496Z,10.23
2018-12-26T14:48:55.827Z,11.03
2018-12-26T14:52:06.204Z,11.33
2018-12-26T14:55:09.469Z,10.70
2018-12-26T14:58:21.547Z,10.40
2018-12-26T15:01:24.951Z,12.33
2018-12-26T15:04:35.493Z,11.67
2018-12-26T15:07:38.067Z,12.00
2018-12-26T15:10:48.418Z,10.47
2018-12-26T15:13:51.136Z,12.60
2018-12-26T15:16:54.057Z,13.20
2018-12-26T15:20:04.392Z,11.40
2018-12-26T15:23:07.455Z,11.40
2018-12-26T15:26:11.404Z,13.27
2018-12-26T15:29:14.225Z,11.47
2018-12-26T15:32:24.480Z,12.67
2018-12-26T15:35:27.833Z,13.47
2018-12-26T15:38:38.143Z,13.90
2018-12-26T15:41:40.628Z,13.97
2018-12-26T15:44:50.939Z,14.13
2018-12-26T15:47:53.442Z,13.77
2018-12-26T15:51:03.740Z,14.17
2018-12-26T15:54:06.954Z,13.13
2018-12-26T15:57:17.315Z,15.00
2018-12-26T16:00:20.688Z,14.27
2018-12-26T16:03:30.985Z,14.60
2018-12-26T16:06:34.184Z,14.73
2018-12-26T16:09:44.478Z,15.50
2018-12-26T16:12:47.775Z,15.07
2018-12-26T16:15:52.804Z,16.13
2018-12-26T16:19:03.177Z,13.00
2018-12-26T16:22:05.960Z,14.93
2018-12-26T16:25:16.196Z,18.53
2018-12-26T16:28:19.513Z,14.50
2018-12-26T16:31:29.856Z,17.67
2018-12-26T16:34:33.206Z,14.10
2018-12-26T16:37:43.520Z,15.23
2018-12-26T16:40:46.903Z,14.67
2018-12-26T16:43:57.207Z,14.10
2018-12-26T16:47:00.197Z,15.27
2018-12-26T16:50:10.994Z,14.43
2018-12-26T16:53:13.638Z,13.90
2018-12-26T16:56:23.920Z,13.77
2018-12-26T16:59:26.456Z,13.20
2018-12-26T17:02:36.763Z,14.70
2018-12-26T17:05:39.501Z,13.77
2018-12-26T17:08:49.790Z,14.40
2018-12-26T17:11:52.941Z,13.60
2018-12-26T17:15:03.248Z,14.60
2018-12-26T17:18:06.756Z,14.77
2018-12-26T17:21:17.057Z,15.10
2018-12-26T17:24:20.266Z,12.37
2018-12-26T17:27:30.560Z,12.80
2018-12-26T17:30:33.058Z,12.67
2018-12-26T17:33:43.318Z,15.73
2018-12-26T17:36:46.828Z,14.13
2018-12-26T17:39:57.119Z,15.17
2018-12-26T17:42:59.813Z,14.03
2018-12-26T17:46:10.062Z,14.73
2018-12-26T17:49:12.798Z,13.00
2018-12-26T17:52:23.116Z,12.90
2018-12-26T17:55:45.005Z,14.73
2018-12-26T17:59:04.516Z,14.30
2018-12-26T18:02:10.256Z,13.00
2018-12-26T18:05:20.566Z,13.07
2018-12-26T18:08:23.501Z,12.87
2018-12-26T18:11:26.467Z,13.03
2018-12-26T18:14:29.974Z,12.73
2018-12-26T18:17:40.319Z,13.80
2018-12-26T18:20:42.961Z,13.07
2018-12-26T18:23:45.644Z,13.23
2018-12-26T18:26:48.607Z,14.03
2018-12-26T18:29:58.832Z,14.20
2018-12-26T18:33:01.790Z,13.20
2018-12-26T18:36:04.515Z,14.57
2018-12-26T18:39:14.757Z,13.93
2018-12-26T18:42:17.394Z,14.83
2018-12-26T18:45:27.650Z,14.07
2018-12-26T18:48:30.521Z,15.57
2018-12-26T18:55:08.762Z,13.67
2018-12-26T18:58:12.784Z,16.57
2018-12-26T19:01:15.393Z,13.83
2018-12-26T19:04:25.654Z,15.30
2018-12-26T19:07:28.350Z,13.53
2018-12-26T19:10:38.652Z,14.97
2018-12-26T19:13:41.503Z,17.37
2018-12-26T19:16:51.832Z,16.07
2018-12-26T19:19:54.961Z,15.60
2018-12-26T19:22:58.244Z,13.90
2018-12-26T19:26:08.526Z,14.93
2018-12-26T19:29:11.690Z,14.50
2018-12-26T19:32:22.033Z,16.13
2018-12-26T19:35:25.125Z,17.77
2018-12-26T19:38:35.444Z,17.27
2018-12-26T19:41:38.365Z,15.43
2018-12-26T19:44:41.200Z,15.93
2018-12-26T19:47:51.508Z,16.43
2018-12-26T19:50:54.127Z,14.20
2018-12-26T19:54:04.431Z,14.40
2018-12-26T19:57:07.169Z,15.63
2018-12-26T20:00:17.473Z,14.77
2018-12-26T20:03:20.910Z,15.30
2018-12-26T20:06:32.368Z,15.40
2018-12-26T20:09:36.242Z,14.83
2018-12-26T20:12:46.520Z,16.47
2018-12-26T20:15:49.727Z,13.70
2018-12-26T20:19:00.048Z,13.57
2018-12-26T20:22:03.091Z,15.50
2018-12-26T20:25:06.451Z,15.43
2018-12-26T20:28:16.852Z,13.17
2018-12-26T20:31:19.625Z,12.80
2018-12-26T20:34:22.700Z,17.70
2018-12-26T20:37:33.015Z,23.67
2018-12-26T20:40:36.383Z,20.70
2018-12-26T20:43:46.701Z,16.47
2018-12-26T20:46:50.005Z,15.60
2018-12-26T20:50:00.304Z,16.43
2018-12-26T20:53:03.431Z,14.00
2018-12-26T20:56:13.753Z,17.13
2018-12-26T20:59:17.096Z,15.17
2018-12-26T21:02:27.479Z,15.10
2018-12-26T21:05:30.760Z,16.10
2018-12-26T21:08:34.974Z,15.07
2018-12-26T21:11:45.367Z,13.67
2018-12-26T21:14:48.817Z,14.80
2018-12-26T21:17:59.102Z,13.90
2018-12-26T21:21:02.575Z,15.20
2018-12-26T21:24:12.891Z,16.90
2018-12-26T21:27:15.596Z,16.93
2018-12-26T21:30:18.783Z,14.43
2018-12-26T21:33:29.201Z,14.83
2018-12-26T21:36:32.867Z,16.20
2018-12-26T21:39:35.906Z,16.43
2018-12-26T21:42:46.222Z,13.83
2018-12-26T21:45:49.107Z,12.27
2018-12-26T21:48:59.410Z,14.07
2018-12-26T21:52:02.291Z,12.43
2018-12-26T21:55:12.594Z,13.60
2018-12-26T21:58:15.622Z,14.57
2018-12-26T22:01:25.878Z,13.97
2018-12-26T22:04:29.298Z,14.80
2018-12-26T22:07:39.574Z,17.40
2018-12-26T22:10:42.377Z,14.63
2018-12-26T22:13:52.648Z,13.10
2018-12-26T22:16:55.888Z,11.63
2018-12-26T22:20:07.185Z,12.57
2018-12-26T22:23:09.686Z,13.03
2018-12-26T22:26:19.953Z,10.37
2018-12-26T22:29:22.458Z,11.10
2018-12-26T22:32:32.802Z,11.67
2018-12-26T22:35:35.608Z,10.17
2018-12-26T22:38:38.841Z,10.13
2018-12-26T22:41:49.088Z,10.30
2018-12-26T22:44:52.081Z,7.57
2018-12-26T22:48:02.400Z,8.00
2018-12-26T22:51:05.309Z,8.30
2018-12-26T22:54:15.602Z,8.03
2018-12-26T22:57:18.687Z,7.43
2018-12-26T23:00:47.802Z,8.47
2018-12-26T23:03:50.291Z,9.00
2018-12-26T23:06:53.336Z,6.90
2018-12-26T23:09:56.374Z,7.00
2018-12-26T23:13:06.683Z,8.73
2018-12-26T23:16:09.410Z,8.00
2018-12-26T23:19:12.731Z,8.70
2018-12-26T23:22:22.994Z,7.50
2018-12-26T23:25:25.691Z,8.33
2018-12-26T23:32:03.434Z,9.13
2018-12-26T23:35:06.459Z,8.50
2018-12-26T23:38:09.843Z,8.23
2018-12-26T23:41:20.124Z,7.33
2018-12-26T23:44:22.630Z,6.77
2018-12-26T23:47:32.990Z,8.40
2018-12-26T23:50:38.033Z,8.20
2018-12-26T23:53:41.637Z,8.20
2018-12-26T23:56:51.902Z,7.63
2018-12-26T23:59:55.079Z,8.13
